sensor_id;sensor_type;location;lat;lon;timestamp;pressure;altitude;pressure_sealevel;temperature;humidity
54854;BME280;40747;49.480;8.658;2022-09-09T00:00:41;99870.88;;;16.26;100.00
54854;BME280;40747;49.480;8.658;2022-09-09T00:03:16;99869.22;;;16.09;100.00
54854;BME280;40747;49.480;8.658;2022-09-09T00:06:07;99856.53;;;16.14;100.00
54854;BME280;40747;49.480;8.658;2022-09-09T00:08:50;99855.19;;;16.21;100.00
54854;BME280;40747;49.480;8.658;2022-09-09T00:11:24;99861.66;;;16.17;100.00
54854;BME280;40747;49.480;8.658;2022-09-09T00:13:53;99855.22;;;16.07;100.00
54854;BME280;40747;49.480;8.658;2022-09-09T00:16:25;99855.88;;;16.10;100.00
54854;BME280;40747;49.480;8.658;2022-09-09T00:21:22;99861.75;;;16.15;100.00
54854;BME280;40747;49.480;8.658;2022-09-09T00:23:53;99861.56;;;16.33;100.00
54854;BME280;40747;49.480;8.658;2022-09-09T00:26:39;99862.13;;;16.38;100.00
54854;BME280;40747;49.480;8.658;2022-09-09T00:31:33;99866.59;;;16.23;100.00
54854;BME280;40747;49.480;8.658;2022-09-09T00:34:04;99856.25;;;16.18;100.00
54854;BME280;40747;49.480;8.658;2022-09-09T00:36:37;99858.53;;;16.25;100.00
54854;BME280;40747;49.480;8.658;2022-09-09T00:39:03;99855.50;;;16.31;100.00
54854;BME280;40747;49.480;8.658;2022-09-09T00:41:47;99855.88;;;16.39;100.00
54854;BME280;40747;49.480;8.658;2022-09-09T00:47:12;99849.69;;;16.53;97.39
54854;BME280;40747;49.480;8.658;2022-09-09T00:52:24;99853.84;;;16.71;97.93
54854;BME280;40747;49.480;8.658;2022-09-09T00:57:27;99855.69;;;16.84;94.45
54854;BME280;40747;49.480;8.658;2022-09-09T01:00:30;99865.69;;;16.95;94.74
54854;BME280;40747;49.480;8.658;2022-09-09T01:05:59;99860.53;;;17.06;92.86
54854;BME280;40747;49.480;8.658;2022-09-09T01:11:25;99853.25;;;17.23;92.85
54854;BME280;40747;49.480;8.658;2022-09-09T01:14:01;99848.13;;;17.19;91.84
54854;BME280;40747;49.480;8.658;2022-09-09T01:16:30;99857.53;;;17.25;92.58
54854;BME280;40747;49.480;8.658;2022-09-09T01:18:58;99868.25;;;17.24;91.60
54854;BME280;40747;49.480;8.658;2022-09-09T01:21:35;99859.84;;;17.30;91.65
54854;BME280;40747;49.480;8.658;2022-09-09T01:24:34;99862.53;;;17.30;92.15
54854;BME280;40747;49.480;8.658;2022-09-09T01:27:05;99860.72;;;17.30;91.39
54854;BME280;40747;49.480;8.658;2022-09-09T01:29:32;99864.66;;;17.38;90.59
54854;BME280;40747;49.480;8.658;2022-09-09T01:32:03;99869.59;;;17.44;91.16
54854;BME280;40747;49.480;8.658;2022-09-09T01:34:47;99866.81;;;17.45;92.00
54854;BME280;40747;49.480;8.658;2022-09-09T01:37:13;99865.94;;;17.32;91.39
54854;BME280;40747;49.480;8.658;2022-09-09T01:39:40;99870.84;;;17.25;91.51
54854;BME280;40747;49.480;8.658;2022-09-09T01:42:09;99867.28;;;17.25;91.07
54854;BME280;40747;49.480;8.658;2022-09-09T01:44:37;99860.22;;;17.38;91.09
54854;BME280;40747;49.480;8.658;2022-09-09T01:47:04;99871.72;;;17.39;93.03
54854;BME280;40747;49.480;8.658;2022-09-09T01:49:30;99873.72;;;17.35;91.69
54854;BME280;40747;49.480;8.658;2022-09-09T01:51:57;99879.16;;;17.33;92.49
54854;BME280;40747;49.480;8.658;2022-09-09T01:54:26;99870.91;;;17.24;92.37
54854;BME280;40747;49.480;8.658;2022-09-09T01:57:21;99875.72;;;17.31;92.23
54854;BME280;40747;49.480;8.658;2022-09-09T02:00:02;99864.63;;;17.25;92.79
54854;BME280;40747;49.480;8.658;2022-09-09T02:02:48;99873.56;;;17.24;92.81
54854;BME280;40747;49.480;8.658;2022-09-09T02:07:51;99861.09;;;17.11;92.54
54854;BME280;40747;49.480;8.658;2022-09-09T02:10:24;99870.56;;;17.15;92.62
54854;BME280;40747;49.480;8.658;2022-09-09T02:13:17;99880.06;;;17.19;92.83
54854;BME280;40747;49.480;8.658;2022-09-09T02:15:55;99874.84;;;17.18;93.59
54854;BME280;40747;49.480;8.658;2022-09-09T02:18:26;99880.06;;;17.19;92.72
54854;BME280;40747;49.480;8.658;2022-09-09T02:20:53;99864.84;;;17.22;92.41
54854;BME280;40747;49.480;8.658;2022-09-09T02:23:19;99879.59;;;17.13;92.50
54854;BME280;40747;49.480;8.658;2022-09-09T02:25:45;99887.63;;;17.26;94.13
54854;BME280;40747;49.480;8.658;2022-09-09T02:28:13;99875.88;;;17.15;92.28
54854;BME280;40747;49.480;8.658;2022-09-09T02:30:40;99875.69;;;17.18;92.86
54854;BME280;40747;49.480;8.658;2022-09-09T02:33:07;99875.06;;;17.15;94.29
54854;BME280;40747;49.480;8.658;2022-09-09T02:35:35;99863.78;;;16.97;93.43
54854;BME280;40747;49.480;8.658;2022-09-09T02:38:07;99883.66;;;16.91;94.03
54854;BME280;40747;49.480;8.658;2022-09-09T02:40:34;99880.22;;;17.03;93.79
54854;BME280;40747;49.480;8.658;2022-09-09T02:42:59;99872.84;;;17.07;94.52
54854;BME280;40747;49.480;8.658;2022-09-09T02:45:29;99881.25;;;17.01;94.17
54854;BME280;40747;49.480;8.658;2022-09-09T02:48:07;99873.69;;;16.95;94.17
54854;BME280;40747;49.480;8.658;2022-09-09T02:50:43;99884.09;;;16.98;95.19
54854;BME280;40747;49.480;8.658;2022-09-09T02:53:20;99882.09;;;17.01;95.10
54854;BME280;40747;49.480;8.658;2022-09-09T02:55:51;99890.19;;;17.00;95.98
54854;BME280;40747;49.480;8.658;2022-09-09T02:58:20;99880.72;;;16.96;95.32
54854;BME280;40747;49.480;8.658;2022-09-09T03:00:48;99881.66;;;16.95;96.83
54854;BME280;40747;49.480;8.658;2022-09-09T03:03:15;99869.41;;;16.92;96.46
54854;BME280;40747;49.480;8.658;2022-09-09T03:05:42;99876.50;;;16.92;95.80
54854;BME280;40747;49.480;8.658;2022-09-09T03:08:07;99878.69;;;16.85;95.72
54854;BME280;40747;49.480;8.658;2022-09-09T03:10:33;99871.38;;;16.88;95.95
54854;BME280;40747;49.480;8.658;2022-09-09T03:12:58;99874.50;;;16.95;96.59
54854;BME280;40747;49.480;8.658;2022-09-09T03:15:24;99862.28;;;16.93;95.71
54854;BME280;40747;49.480;8.658;2022-09-09T03:17:49;99851.81;;;16.90;95.84
54854;BME280;40747;49.480;8.658;2022-09-09T03:20:14;99850.88;;;16.91;96.00
54854;BME280;40747;49.480;8.658;2022-09-09T03:22:40;99867.31;;;16.97;95.91
54854;BME280;40747;49.480;8.658;2022-09-09T03:25:05;99870.44;;;16.90;95.92
54854;BME280;40747;49.480;8.658;2022-09-09T03:27:31;99873.94;;;16.90;97.28
54854;BME280;40747;49.480;8.658;2022-09-09T03:29:57;99875.19;;;16.70;97.94
54854;BME280;40747;49.480;8.658;2022-09-09T03:32:23;99871.63;;;16.57;99.12
54854;BME280;40747;49.480;8.658;2022-09-09T03:34:50;99857.56;;;16.40;98.51
54854;BME280;40747;49.480;8.658;2022-09-09T03:37:16;99862.38;;;16.62;100.00
54854;BME280;40747;49.480;8.658;2022-09-09T03:39:43;99862.50;;;16.61;99.32
54854;BME280;40747;49.480;8.658;2022-09-09T03:42:08;99862.09;;;16.67;98.26
54854;BME280;40747;49.480;8.658;2022-09-09T03:44:33;99863.25;;;16.63;99.25
54854;BME280;40747;49.480;8.658;2022-09-09T03:46:58;99867.34;;;16.54;99.47
54854;BME280;40747;49.480;8.658;2022-09-09T03:49:26;99877.59;;;16.31;99.67
54854;BME280;40747;49.480;8.658;2022-09-09T03:51:54;99867.75;;;16.33;99.51
54854;BME280;40747;49.480;8.658;2022-09-09T03:54:19;99863.00;;;16.38;98.94
54854;BME280;40747;49.480;8.658;2022-09-09T03:56:44;99866.59;;;16.37;98.36
54854;BME280;40747;49.480;8.658;2022-09-09T03:59:10;99867.63;;;16.35;97.35
54854;BME280;40747;49.480;8.658;2022-09-09T04:01:35;99869.91;;;16.41;98.71
54854;BME280;40747;49.480;8.658;2022-09-09T04:04:01;99876.19;;;16.40;97.75
54854;BME280;40747;49.480;8.658;2022-09-09T04:06:27;99876.56;;;16.34;98.51
54854;BME280;40747;49.480;8.658;2022-09-09T04:08:53;99866.31;;;16.28;97.37
54854;BME280;40747;49.480;8.658;2022-09-09T04:11:18;99877.22;;;16.37;96.58
54854;BME280;40747;49.480;8.658;2022-09-09T04:13:45;99882.75;;;16.34;96.16
54854;BME280;40747;49.480;8.658;2022-09-09T04:16:11;99884.72;;;16.45;96.93
54854;BME280;40747;49.480;8.658;2022-09-09T04:18:38;99890.88;;;16.31;96.55
54854;BME280;40747;49.480;8.658;2022-09-09T04:21:04;99883.69;;;16.33;97.47
54854;BME280;40747;49.480;8.658;2022-09-09T04:23:31;99879.59;;;16.28;97.46
54854;BME280;40747;49.480;8.658;2022-09-09T04:25:58;99880.56;;;16.27;96.17
54854;BME280;40747;49.480;8.658;2022-09-09T04:28:27;99878.75;;;16.27;96.59
54854;BME280;40747;49.480;8.658;2022-09-09T04:30:52;99864.13;;;16.20;96.65
54854;BME280;40747;49.480;8.658;2022-09-09T04:33:18;99877.41;;;16.20;96.09
54854;BME280;40747;49.480;8.658;2022-09-09T04:35:46;99880.72;;;16.24;95.81
54854;BME280;40747;49.480;8.658;2022-09-09T04:38:13;99883.78;;;16.32;96.56
54854;BME280;40747;49.480;8.658;2022-09-09T04:40:38;99890.53;;;16.37;96.57
54854;BME280;40747;49.480;8.658;2022-09-09T04:43:08;99886.72;;;16.27;96.46
54854;BME280;40747;49.480;8.658;2022-09-09T04:45:33;99895.25;;;16.18;95.73
54854;BME280;40747;49.480;8.658;2022-09-09T04:47:59;99886.16;;;16.22;95.72
54854;BME280;40747;49.480;8.658;2022-09-09T04:50:24;99884.91;;;16.28;95.30
54854;BME280;40747;49.480;8.658;2022-09-09T04:52:50;99890.53;;;16.37;95.79
54854;BME280;40747;49.480;8.658;2022-09-09T04:55:16;99901.03;;;16.39;96.66
54854;BME280;40747;49.480;8.658;2022-09-09T04:57:41;99901.88;;;16.25;96.14
54854;BME280;40747;49.480;8.658;2022-09-09T05:00:07;99906.38;;;16.39;97.01
54854;BME280;40747;49.480;8.658;2022-09-09T05:02:33;99898.50;;;16.23;96.51
54854;BME280;40747;49.480;8.658;2022-09-09T05:05:02;99905.06;;;16.32;96.17
54854;BME280;40747;49.480;8.658;2022-09-09T05:07:27;99902.09;;;16.22;96.07
54854;BME280;40747;49.480;8.658;2022-09-09T05:09:54;99910.53;;;16.29;96.77
54854;BME280;40747;49.480;8.658;2022-09-09T05:12:19;99909.03;;;16.39;97.22
54854;BME280;40747;49.480;8.658;2022-09-09T05:14:44;99903.81;;;16.23;97.06
54854;BME280;40747;49.480;8.658;2022-09-09T05:17:10;99909.59;;;16.30;96.62
54854;BME280;40747;49.480;8.658;2022-09-09T05:19:36;99900.22;;;16.38;95.98
54854;BME280;40747;49.480;8.658;2022-09-09T05:22:01;99909.91;;;16.40;95.96
54854;BME280;40747;49.480;8.658;2022-09-09T05:24:27;99911.41;;;16.44;97.13
54854;BME280;40747;49.480;8.658;2022-09-09T05:26:52;99923.47;;;16.35;96.00
54854;BME280;40747;49.480;8.658;2022-09-09T05:29:17;99912.72;;;16.36;96.41
54854;BME280;40747;49.480;8.658;2022-09-09T05:31:45;99912.25;;;16.44;96.91
54854;BME280;40747;49.480;8.658;2022-09-09T05:34:10;99925.75;;;16.41;96.09
54854;BME280;40747;49.480;8.658;2022-09-09T05:36:36;99929.53;;;16.51;97.39
54854;BME280;40747;49.480;8.658;2022-09-09T05:39:01;99930.88;;;16.59;96.60
54854;BME280;40747;49.480;8.658;2022-09-09T05:41:27;99937.88;;;16.60;96.18
54854;BME280;40747;49.480;8.658;2022-09-09T05:43:53;99930.88;;;16.73;97.46
54854;BME280;40747;49.480;8.658;2022-09-09T05:46:21;99933.91;;;16.67;95.78
54854;BME280;40747;49.480;8.658;2022-09-09T05:48:47;99931.25;;;16.67;96.53
54854;BME280;40747;49.480;8.658;2022-09-09T05:51:18;99934.69;;;16.69;96.32
54854;BME280;40747;49.480;8.658;2022-09-09T05:53:45;99937.31;;;16.83;96.36
54854;BME280;40747;49.480;8.658;2022-09-09T05:56:13;99940.44;;;16.90;95.66
54854;BME280;40747;49.480;8.658;2022-09-09T05:58:42;99942.44;;;16.86;95.54
54854;BME280;40747;49.480;8.658;2022-09-09T06:01:17;99948.91;;;16.82;95.74
54854;BME280;40747;49.480;8.658;2022-09-09T06:03:44;99946.34;;;16.81;95.21
54854;BME280;40747;49.480;8.658;2022-09-09T06:06:12;99951.19;;;16.88;95.67
54854;BME280;40747;49.480;8.658;2022-09-09T06:08:40;99951.47;;;16.84;96.11
54854;BME280;40747;49.480;8.658;2022-09-09T06:11:22;99954.31;;;16.81;96.05
54854;BME280;40747;49.480;8.658;2022-09-09T06:13:49;99953.16;;;16.85;94.70
54854;BME280;40747;49.480;8.658;2022-09-09T06:16:18;99960.88;;;16.90;95.68
54854;BME280;40747;49.480;8.658;2022-09-09T06:18:44;99952.13;;;17.02;94.75
54854;BME280;40747;49.480;8.658;2022-09-09T06:21:18;99960.78;;;17.06;95.58
54854;BME280;40747;49.480;8.658;2022-09-09T06:23:45;99949.94;;;17.09;95.45
54854;BME280;40747;49.480;8.658;2022-09-09T06:26:14;99951.19;;;17.03;95.53
54854;BME280;40747;49.480;8.658;2022-09-09T06:28:40;99951.84;;;17.07;96.14
54854;BME280;40747;49.480;8.658;2022-09-09T06:31:09;99951.19;;;17.03;95.15
54854;BME280;40747;49.480;8.658;2022-09-09T06:33:41;99947.63;;;17.17;94.85
54854;BME280;40747;49.480;8.658;2022-09-09T06:36:10;99951.53;;;17.26;95.91
54854;BME280;40747;49.480;8.658;2022-09-09T06:38:36;99949.63;;;17.28;95.33
54854;BME280;40747;49.480;8.658;2022-09-09T06:41:01;99947.59;;;17.31;93.64
54854;BME280;40747;49.480;8.658;2022-09-09T06:43:28;99948.16;;;17.36;93.89
54854;BME280;40747;49.480;8.658;2022-09-09T06:46:05;99955.19;;;17.38;93.92
54854;BME280;40747;49.480;8.658;2022-09-09T06:48:31;99949.56;;;17.42;93.17
54854;BME280;40747;49.480;8.658;2022-09-09T06:51:05;99958.06;;;17.62;93.47
54854;BME280;40747;49.480;8.658;2022-09-09T06:53:32;99963.81;;;17.68;92.88
54854;BME280;40747;49.480;8.658;2022-09-09T06:56:00;99965.13;;;17.76;92.82
54854;BME280;40747;49.480;8.658;2022-09-09T06:58:26;99960.75;;;17.75;93.52
54854;BME280;40747;49.480;8.658;2022-09-09T07:00:51;99957.25;;;17.74;92.74
54854;BME280;40747;49.480;8.658;2022-09-09T07:03:17;99951.56;;;17.93;93.02
54854;BME280;40747;49.480;8.658;2022-09-09T07:05:43;99958.50;;;17.96;91.74
54854;BME280;40747;49.480;8.658;2022-09-09T07:08:10;99956.69;;;18.09;91.31
54854;BME280;40747;49.480;8.658;2022-09-09T07:10:35;99963.44;;;18.15;91.96
54854;BME280;40747;49.480;8.658;2022-09-09T07:13:01;99963.75;;;18.10;91.47
54854;BME280;40747;49.480;8.658;2022-09-09T07:15:27;99968.00;;;18.13;91.67
54854;BME280;40747;49.480;8.658;2022-09-09T07:17:52;99966.75;;;18.18;92.13
54854;BME280;40747;49.480;8.658;2022-09-09T07:20:19;99958.66;;;18.20;91.84
54854;BME280;40747;49.480;8.658;2022-09-09T07:22:44;99964.84;;;18.33;90.08
54854;BME280;40747;49.480;8.658;2022-09-09T07:25:10;99966.78;;;18.44;90.83
54854;BME280;40747;49.480;8.658;2022-09-09T07:27:35;99968.50;;;18.45;90.54
54854;BME280;40747;49.480;8.658;2022-09-09T07:30:00;99968.25;;;18.23;89.18
54854;BME280;40747;49.480;8.658;2022-09-09T07:32:27;99960.78;;;18.15;89.96
54854;BME280;40747;49.480;8.658;2022-09-09T07:34:52;99961.44;;;18.18;90.58
54854;BME280;40747;49.480;8.658;2022-09-09T07:37:18;99963.34;;;18.16;90.06
54854;BME280;40747;49.480;8.658;2022-09-09T07:39:43;99967.06;;;18.27;90.65
54854;BME280;40747;49.480;8.658;2022-09-09T07:42:09;99947.66;;;18.25;89.52
54854;BME280;40747;49.480;8.658;2022-09-09T07:44:36;99962.69;;;18.51;90.00
54854;BME280;40747;49.480;8.658;2022-09-09T07:47:04;99955.13;;;18.71;88.93
54854;BME280;40747;49.480;8.658;2022-09-09T07:49:29;99961.00;;;18.76;87.46
54854;BME280;40747;49.480;8.658;2022-09-09T07:51:54;99962.59;;;18.79;87.68
54854;BME280;40747;49.480;8.658;2022-09-09T07:54:21;99963.56;;;18.65;88.15
54854;BME280;40747;49.480;8.658;2022-09-09T07:56:49;99960.13;;;18.63;88.28
54854;BME280;40747;49.480;8.658;2022-09-09T07:59:15;99967.00;;;18.67;88.04
54854;BME280;40747;49.480;8.658;2022-09-09T08:01:49;99978.81;;;18.76;89.28
54854;BME280;40747;49.480;8.658;2022-09-09T08:04:19;99968.34;;;18.73;89.86
54854;BME280;40747;49.480;8.658;2022-09-09T08:06:52;99974.25;;;18.52;89.55
54854;BME280;40747;49.480;8.658;2022-09-09T08:09:18;99969.44;;;18.57;91.15
54854;BME280;40747;49.480;8.658;2022-09-09T08:11:43;99969.53;;;18.69;90.58
54854;BME280;40747;49.480;8.658;2022-09-09T08:14:09;99969.19;;;18.73;90.11
54854;BME280;40747;49.480;8.658;2022-09-09T08:16:38;99972.28;;;19.06;87.97
54854;BME280;40747;49.480;8.658;2022-09-09T08:19:04;99976.47;;;19.34;89.20
54854;BME280;40747;49.480;8.658;2022-09-09T08:21:32;99978.94;;;19.61;86.46
54854;BME280;40747;49.480;8.658;2022-09-09T08:23:59;99971.25;;;19.81;85.74
54854;BME280;40747;49.480;8.658;2022-09-09T08:26:27;99975.88;;;19.79;83.80
54854;BME280;40747;49.480;8.658;2022-09-09T08:28:55;99982.53;;;19.73;84.62
54854;BME280;40747;49.480;8.658;2022-09-09T08:31:42;99980.88;;;19.59;84.76
54854;BME280;40747;49.480;8.658;2022-09-09T08:34:08;99982.84;;;19.44;85.97
54854;BME280;40747;49.480;8.658;2022-09-09T08:36:39;99984.41;;;19.23;84.65
54854;BME280;40747;49.480;8.658;2022-09-09T08:39:06;99989.50;;;19.02;89.66
54854;BME280;40747;49.480;8.658;2022-09-09T08:52:30;99986.09;;;18.61;97.95
54854;BME280;40747;49.480;8.658;2022-09-09T08:55:03;99993.56;;;18.56;96.23
54854;BME280;40747;49.480;8.658;2022-09-09T08:57:35;99994.50;;;18.55;96.95
54854;BME280;40747;49.480;8.658;2022-09-09T09:00:02;99987.47;;;18.54;95.27
54854;BME280;40747;49.480;8.658;2022-09-09T09:02:46;99985.97;;;18.49;92.95
54854;BME280;40747;49.480;8.658;2022-09-09T09:05:37;99984.25;;;18.61;94.03
54854;BME280;40747;49.480;8.658;2022-09-09T09:08:35;99995.59;;;18.91;95.34
54854;BME280;40747;49.480;8.658;2022-09-09T09:11:03;99984.22;;;19.13;91.47
54854;BME280;40747;49.480;8.658;2022-09-09T09:13:54;99989.25;;;19.18;90.27
54854;BME280;40747;49.480;8.658;2022-09-09T09:16:30;99982.84;;;19.07;87.52
54854;BME280;40747;49.480;8.658;2022-09-09T09:18:58;99973.13;;;19.43;88.67
54854;BME280;40747;49.480;8.658;2022-09-09T09:24:00;99974.34;;;19.88;86.25
54854;BME280;40747;49.480;8.658;2022-09-09T09:26:30;99968.56;;;19.94;85.48
54854;BME280;40747;49.480;8.658;2022-09-09T09:28:58;99966.88;;;19.80;85.62
54854;BME280;40747;49.480;8.658;2022-09-09T09:31:24;99961.38;;;19.94;84.59
54854;BME280;40747;49.480;8.658;2022-09-09T09:33:53;99966.13;;;20.60;84.41
54854;BME280;40747;49.480;8.658;2022-09-09T09:36:21;99965.44;;;20.92;81.69
54854;BME280;40747;49.480;8.658;2022-09-09T09:39:06;99964.03;;;20.41;81.42
54854;BME280;40747;49.480;8.658;2022-09-09T09:41:38;99951.19;;;20.00;82.26
54854;BME280;40747;49.480;8.658;2022-09-09T09:44:05;99955.75;;;20.22;81.80
54854;BME280;40747;49.480;8.658;2022-09-09T09:46:46;99957.25;;;20.60;80.18
54854;BME280;40747;49.480;8.658;2022-09-09T09:49:12;99960.91;;;21.16;79.67
54854;BME280;40747;49.480;8.658;2022-09-09T09:51:39;99964.09;;;21.53;75.11
54854;BME280;40747;49.480;8.658;2022-09-09T09:56:34;99969.22;;;21.01;75.87
54854;BME280;40747;49.480;8.658;2022-09-09T09:59:00;99969.31;;;21.00;77.89
54854;BME280;40747;49.480;8.658;2022-09-09T10:01:31;99971.88;;;20.78;78.33
54854;BME280;40747;49.480;8.658;2022-09-09T10:04:20;99979.81;;;20.22;79.02
54854;BME280;40747;49.480;8.658;2022-09-09T10:06:47;100008.16;;;19.76;84.32
54854;BME280;40747;49.480;8.658;2022-09-09T10:09:25;100009.22;;;19.86;86.00
54854;BME280;40747;49.480;8.658;2022-09-09T10:11:58;100031.03;;;19.80;89.65
54854;BME280;40747;49.480;8.658;2022-09-09T10:14:44;100042.53;;;18.80;94.74
54854;BME280;40747;49.480;8.658;2022-09-09T10:17:40;100028.22;;;18.43;99.32
54854;BME280;40747;49.480;8.658;2022-09-09T10:22:35;100006.25;;;18.91;100.00
54854;BME280;40747;49.480;8.658;2022-09-09T10:25:21;100010.03;;;19.25;96.97
54854;BME280;40747;49.480;8.658;2022-09-09T10:33:08;99982.16;;;20.02;97.66
54854;BME280;40747;49.480;8.658;2022-09-09T10:39:03;99964.84;;;20.89;96.40
54854;BME280;40747;49.480;8.658;2022-09-09T10:44:16;99955.06;;;21.22;87.89
54854;BME280;40747;49.480;8.658;2022-09-09T10:46:57;99953.81;;;21.37;92.86
54854;BME280;40747;49.480;8.658;2022-09-09T10:52:29;99946.75;;;21.36;87.17
54854;BME280;40747;49.480;8.658;2022-09-09T10:55:08;99939.19;;;21.30;82.10
54854;BME280;40747;49.480;8.658;2022-09-09T10:57:45;99935.56;;;21.20;82.94
54854;BME280;40747;49.480;8.658;2022-09-09T11:00:19;99932.91;;;21.08;81.75
54854;BME280;40747;49.480;8.658;2022-09-09T11:02:49;99940.31;;;21.16;80.92
54854;BME280;40747;49.480;8.658;2022-09-09T11:05:20;99948.22;;;21.29;81.71
54854;BME280;40747;49.480;8.658;2022-09-09T11:07:59;99934.47;;;21.22;79.26
54854;BME280;40747;49.480;8.658;2022-09-09T11:10:39;99930.16;;;20.99;77.22
54854;BME280;40747;49.480;8.658;2022-09-09T11:18:46;99933.78;;;21.09;77.38
54854;BME280;40747;49.480;8.658;2022-09-09T11:21:20;99931.00;;;21.43;76.30
54854;BME280;40747;49.480;8.658;2022-09-09T11:23:55;99924.03;;;21.52;73.32
54854;BME280;40747;49.480;8.658;2022-09-09T11:26:30;99911.97;;;21.90;74.96
54854;BME280;40747;49.480;8.658;2022-09-09T11:31:57;99915.00;;;21.85;73.43
54854;BME280;40747;49.480;8.658;2022-09-09T11:34:42;99907.97;;;21.84;72.76
54854;BME280;40747;49.480;8.658;2022-09-09T11:40:17;99913.66;;;21.91;72.38
54854;BME280;40747;49.480;8.658;2022-09-09T11:42:44;99910.56;;;22.17;70.26
54854;BME280;40747;49.480;8.658;2022-09-09T11:45:23;99907.31;;;22.13;68.54
54854;BME280;40747;49.480;8.658;2022-09-09T11:47:55;99916.25;;;22.23;70.82
54854;BME280;40747;49.480;8.658;2022-09-09T11:52:50;99912.47;;;21.84;71.02
54854;BME280;40747;49.480;8.658;2022-09-09T12:03:03;99909.84;;;22.36;69.88
54854;BME280;40747;49.480;8.658;2022-09-09T12:05:42;99907.25;;;22.46;66.12
54854;BME280;40747;49.480;8.658;2022-09-09T12:08:11;99900.69;;;22.38;67.20
54854;BME280;40747;49.480;8.658;2022-09-09T12:10:41;99907.66;;;22.91;67.28
54854;BME280;40747;49.480;8.658;2022-09-09T12:15:57;99913.91;;;22.92;65.86
54854;BME280;40747;49.480;8.658;2022-09-09T12:18:34;99908.44;;;23.03;68.55
54854;BME280;40747;49.480;8.658;2022-09-09T12:21:14;99909.72;;;22.68;66.64
54854;BME280;40747;49.480;8.658;2022-09-09T12:23:54;99913.72;;;22.43;67.24
54854;BME280;40747;49.480;8.658;2022-09-09T12:26:34;99907.09;;;22.26;68.97
54854;BME280;40747;49.480;8.658;2022-09-09T12:29:24;99914.22;;;22.16;66.58
54854;BME280;40747;49.480;8.658;2022-09-09T12:32:02;99910.19;;;22.21;68.63
54854;BME280;40747;49.480;8.658;2022-09-09T12:34:36;99919.47;;;21.96;68.30
54854;BME280;40747;49.480;8.658;2022-09-09T12:37:05;99925.50;;;21.56;67.92
54854;BME280;40747;49.480;8.658;2022-09-09T12:39:45;99937.88;;;21.68;70.20
54854;BME280;40747;49.480;8.658;2022-09-09T12:42:20;99950.09;;;21.93;71.00
54854;BME280;40747;49.480;8.658;2022-09-09T12:45:14;99966.53;;;21.01;70.50
54854;BME280;40747;49.480;8.658;2022-09-09T12:47:49;99946.19;;;20.65;74.80
54854;BME280;40747;49.480;8.658;2022-09-09T12:50:23;99947.53;;;20.93;76.63
54854;BME280;40747;49.480;8.658;2022-09-09T12:52:52;99939.44;;;21.38;72.69
54854;BME280;40747;49.480;8.658;2022-09-09T12:55:27;99928.47;;;20.75;71.94
54854;BME280;40747;49.480;8.658;2022-09-09T12:57:53;99923.94;;;20.87;74.37
54854;BME280;40747;49.480;8.658;2022-09-09T13:00:21;99919.78;;;20.26;76.34
54854;BME280;40747;49.480;8.658;2022-09-09T13:02:52;99906.69;;;20.79;75.14
54854;BME280;40747;49.480;8.658;2022-09-09T13:05:24;99899.53;;;21.24;73.06
54854;BME280;40747;49.480;8.658;2022-09-09T13:07:50;99894.59;;;21.40;70.61
54854;BME280;40747;49.480;8.658;2022-09-09T13:10:23;99896.06;;;21.44;75.67
54854;BME280;40747;49.480;8.658;2022-09-09T13:12:49;99892.91;;;20.84;77.54
54854;BME280;40747;49.480;8.658;2022-09-09T13:15:26;99901.53;;;20.65;78.28
54854;BME280;40747;49.480;8.658;2022-09-09T13:17:58;99901.31;;;20.91;78.02
54854;BME280;40747;49.480;8.658;2022-09-09T13:20:27;99905.44;;;20.95;77.10
54854;BME280;40747;49.480;8.658;2022-09-09T13:22:53;99892.03;;;20.38;77.87
54854;BME280;40747;49.480;8.658;2022-09-09T13:25:23;99898.88;;;20.31;78.27
54854;BME280;40747;49.480;8.658;2022-09-09T13:33:01;99921.53;;;20.84;76.91
54854;BME280;40747;49.480;8.658;2022-09-09T13:35:27;99927.81;;;20.60;74.76
54854;BME280;40747;49.480;8.658;2022-09-09T13:37:53;99941.31;;;20.58;73.76
54854;BME280;40747;49.480;8.658;2022-09-09T13:40:21;99946.44;;;20.61;73.69
54854;BME280;40747;49.480;8.658;2022-09-09T13:42:47;99953.31;;;20.30;76.00
54854;BME280;40747;49.480;8.658;2022-09-09T13:45:18;99967.72;;;20.05;78.41
54854;BME280;40747;49.480;8.658;2022-09-09T13:47:45;99966.75;;;20.06;80.37
54854;BME280;40747;49.480;8.658;2022-09-09T13:52:48;99963.25;;;20.75;79.60
54854;BME280;40747;49.480;8.658;2022-09-09T13:55:17;99959.00;;;20.95;76.24
54854;BME280;40747;49.480;8.658;2022-09-09T13:57:52;99954.81;;;21.02;75.80
54854;BME280;40747;49.480;8.658;2022-09-09T14:00:18;99928.41;;;20.41;71.96
54854;BME280;40747;49.480;8.658;2022-09-09T14:02:43;99939.25;;;20.62;75.92
54854;BME280;40747;49.480;8.658;2022-09-09T14:05:09;99939.41;;;20.83;72.05
54854;BME280;40747;49.480;8.658;2022-09-09T14:07:37;99932.34;;;20.82;72.19
54854;BME280;40747;49.480;8.658;2022-09-09T14:10:04;99924.44;;;20.81;69.84
54854;BME280;40747;49.480;8.658;2022-09-09T14:12:29;99918.84;;;20.95;68.00
54854;BME280;40747;49.480;8.658;2022-09-09T14:14:54;99921.00;;;21.13;70.07
54854;BME280;40747;49.480;8.658;2022-09-09T14:17:20;99917.22;;;21.15;67.15
54854;BME280;40747;49.480;8.658;2022-09-09T14:19:47;99909.97;;;21.38;66.56
54854;BME280;40747;49.480;8.658;2022-09-09T14:22:12;99906.97;;;21.64;66.56
54854;BME280;40747;49.480;8.658;2022-09-09T14:24:37;99895.94;;;21.79;65.43
54854;BME280;40747;49.480;8.658;2022-09-09T14:27:03;99889.53;;;21.91;65.21
54854;BME280;40747;49.480;8.658;2022-09-09T14:29:28;99893.38;;;21.98;64.85
54854;BME280;40747;49.480;8.658;2022-09-09T14:31:53;99894.47;;;22.17;63.61
54854;BME280;40747;49.480;8.658;2022-09-09T14:34:18;99880.41;;;22.46;63.56
54854;BME280;40747;49.480;8.658;2022-09-09T14:36:44;99881.59;;;22.32;65.59
54854;BME280;40747;49.480;8.658;2022-09-09T14:39:10;99877.94;;;22.12;64.33
54854;BME280;40747;49.480;8.658;2022-09-09T14:41:36;99871.59;;;22.13;66.01